createdAt,value
2023-01-03T00:01:49.298Z,2.89
2023-01-03T00:06:48.930Z,2.89
2023-01-03T00:12:00.837Z,2.83
2023-01-03T00:16:48.359Z,2.82
2023-01-03T00:21:47.805Z,2.81
2023-01-03T00:26:48.219Z,2.78
2023-01-03T00:31:48.561Z,2.74
2023-01-03T00:36:47.891Z,2.71
2023-01-03T00:41:48.101Z,2.71
2023-01-03T00:46:47.981Z,2.68
2023-01-03T00:51:48.316Z,2.66
2023-01-03T00:56:48.513Z,2.63
2023-01-03T01:01:49.069Z,2.61
2023-01-03T01:06:50.049Z,2.61
2023-01-03T01:11:47.879Z,2.52
2023-01-03T01:16:47.930Z,2.57
2023-01-03T01:21:48.594Z,2.51
2023-01-03T01:26:50.377Z,2.49
2023-01-03T01:31:48.398Z,2.47
2023-01-03T01:36:48.868Z,2.38
2023-01-03T01:41:59.977Z,2.35
2023-01-03T01:46:48.239Z,2.32
2023-01-03T01:51:48.114Z,2.3
2023-01-03T01:56:50.379Z,2.23
2023-01-03T02:01:49.207Z,2.21
2023-01-03T02:06:48.223Z,2.17
2023-01-03T02:12:05.031Z,2.14
2023-01-03T02:16:53.870Z,2.06
2023-01-03T02:22:05.768Z,2.05
2023-01-03T02:27:02.410Z,2.04
2023-01-03T02:31:49.960Z,2.02
2023-01-03T02:36:53.760Z,2.01
2023-01-03T02:41:49.120Z,1.96
2023-01-03T02:46:51.179Z,1.94
2023-01-03T02:51:50.040Z,1.88
2023-01-03T02:56:49.738Z,1.85
2023-01-03T03:01:49.902Z,1.88
2023-01-03T03:06:51.212Z,1.89
2023-01-03T03:11:59.616Z,1.89
2023-01-03T03:16:53.530Z,1.9
2023-01-03T03:21:59.375Z,1.89
2023-01-03T03:26:48.497Z,1.93
2023-01-03T03:31:49.248Z,1.92
2023-01-03T03:36:51.672Z,1.93
2023-01-03T03:42:03.761Z,1.91
2023-01-03T03:46:54.725Z,1.9
2023-01-03T03:51:49.839Z,1.92
2023-01-03T03:56:50.202Z,1.94
2023-01-03T04:01:49.638Z,1.92
2023-01-03T04:06:49.685Z,1.89
2023-01-03T04:11:47.893Z,1.88
2023-01-03T04:16:48.123Z,1.89
2023-01-03T04:21:48.778Z,1.86
2023-01-03T04:26:48.000Z,1.84
2023-01-03T04:31:48.069Z,1.85
2023-01-03T04:36:48.808Z,1.82
2023-01-03T04:41:47.880Z,1.82
2023-01-03T04:46:52.536Z,1.81
2023-01-03T04:51:47.952Z,1.85
2023-01-03T04:56:47.895Z,1.79
2023-01-03T05:01:51.862Z,1.76
2023-01-03T05:06:47.951Z,1.8
2023-01-03T05:11:50.759Z,1.78
2023-01-03T05:16:48.091Z,1.78
2023-01-03T05:21:59.125Z,1.73
2023-01-03T05:26:48.418Z,1.74
2023-01-03T05:31:48.046Z,1.73
2023-01-03T05:36:47.851Z,1.68
2023-01-03T05:41:59.163Z,1.69
2023-01-03T05:46:48.036Z,1.74
2023-01-03T05:51:47.939Z,1.78
2023-01-03T05:56:48.245Z,1.86
2023-01-03T06:01:48.344Z,1.9
2023-01-03T06:06:48.152Z,1.94
2023-01-03T06:16:59.572Z,2.04
2023-01-03T06:21:47.764Z,2.07
2023-01-03T06:26:50.438Z,2.12
2023-01-03T06:31:47.766Z,2.17
2023-01-03T06:36:48.150Z,2.19
2023-01-03T06:41:47.774Z,2.22
2023-01-03T06:46:59.728Z,2.3
2023-01-03T06:51:59.679Z,2.34
2023-01-03T06:56:47.788Z,2.38
2023-01-03T07:01:48.427Z,2.42
2023-01-03T07:06:48.678Z,2.45
2023-01-03T07:11:49.432Z,2.49
2023-01-03T07:16:48.718Z,2.53
2023-01-03T07:21:47.922Z,2.56
2023-01-03T07:26:53.538Z,2.64
2023-01-03T07:31:53.311Z,2.69
2023-01-03T07:36:47.663Z,2.75
2023-01-03T07:42:08.820Z,2.8
2023-01-03T07:46:55.933Z,2.84
2023-01-03T07:51:48.888Z,2.88
2023-01-03T07:56:56.958Z,2.94
2023-01-03T08:01:51.712Z,2.98
2023-01-03T08:06:52.000Z,3.02
2023-01-03T08:12:02.885Z,3.06
2023-01-03T08:16:47.701Z,3.12
2023-01-03T08:21:47.938Z,3.12
2023-01-03T08:26:56.614Z,3.11
2023-01-03T08:31:49.866Z,3.1
2023-01-03T08:36:49.595Z,3.12
2023-01-03T08:41:49.371Z,3.08
2023-01-03T08:46:51.828Z,3.1
2023-01-03T08:51:47.642Z,3.13
2023-01-03T08:56:56.005Z,3.19
2023-01-03T09:01:48.008Z,3.22
2023-01-03T09:06:48.000Z,3.23
2023-01-03T09:11:47.778Z,3.3
2023-01-03T09:16:49.452Z,3.35
2023-01-03T09:21:47.900Z,3.43
2023-01-03T09:27:04.073Z,3.5
2023-01-03T09:31:47.629Z,3.65
2023-01-03T09:36:47.666Z,3.71
2023-01-03T09:41:58.051Z,3.91
2023-01-03T09:46:47.822Z,4.1
2023-01-03T09:52:00.994Z,4.18
2023-01-03T09:57:21.842Z,4.31
2023-01-03T10:02:02.581Z,4.41
2023-01-03T10:06:54.060Z,4.49
2023-01-03T10:11:53.917Z,4.6
2023-01-03T10:16:53.457Z,4.69
2023-01-03T10:21:53.843Z,4.76
2023-01-03T10:27:06.195Z,4.84
2023-01-03T10:31:55.885Z,4.95
2023-01-03T10:36:47.591Z,5.01
2023-01-03T10:41:52.133Z,5.1
2023-01-03T10:46:53.969Z,5.14
2023-01-03T10:51:54.538Z,5.22
2023-01-03T10:56:54.884Z,5.29
2023-01-03T11:01:58.031Z,5.39
2023-01-03T11:06:59.248Z,5.49
2023-01-03T11:11:47.905Z,5.58
2023-01-03T11:16:47.775Z,5.69
2023-01-03T11:21:50.167Z,5.66
2023-01-03T11:27:05.859Z,5.73
2023-01-03T11:31:53.425Z,5.74
2023-01-03T11:36:52.420Z,5.8
2023-01-03T11:41:59.819Z,5.85
2023-01-03T11:46:59.306Z,5.9
2023-01-03T11:51:51.911Z,5.99
2023-01-03T11:56:56.879Z,6.03
2023-01-03T12:01:58.972Z,6.07
2023-01-03T12:07:14.270Z,6.13
2023-01-03T12:12:06.501Z,6.16
2023-01-03T12:16:49.274Z,6.23
2023-01-03T12:21:51.536Z,6.29
2023-01-03T12:27:01.764Z,6.3
2023-01-03T12:31:50.347Z,6.37
2023-01-03T12:36:52.315Z,6.4
2023-01-03T12:41:50.231Z,6.41
2023-01-03T12:46:50.886Z,6.44
2023-01-03T12:51:47.688Z,6.47
2023-01-03T12:57:13.775Z,6.54
2023-01-03T13:01:53.366Z,6.58
2023-01-03T13:06:53.122Z,6.61
2023-01-03T13:11:52.235Z,6.64
2023-01-03T13:16:51.496Z,6.68
2023-01-03T13:22:07.371Z,6.69
2023-01-03T13:27:15.158Z,6.7
2023-01-03T13:31:47.778Z,6.74
2023-01-03T13:36:58.771Z,6.78
2023-01-03T13:41:47.533Z,6.81
2023-01-03T13:46:47.820Z,6.83
2023-01-03T13:51:54.533Z,6.88
2023-01-03T13:57:07.188Z,6.87
2023-01-03T14:01:55.406Z,6.9
2023-01-03T14:06:59.275Z,6.92
2023-01-03T14:12:03.546Z,6.9
2023-01-03T14:16:53.614Z,6.87
2023-01-03T14:21:53.864Z,6.86
2023-01-03T14:26:54.878Z,6.86
2023-01-03T14:31:53.669Z,6.84
2023-01-03T14:36:52.275Z,6.83
2023-01-03T14:41:51.153Z,6.84
2023-01-03T14:46:53.474Z,6.83
2023-01-03T14:51:47.693Z,6.82
2023-01-03T14:56:58.788Z,6.81
2023-01-03T15:01:48.406Z,6.79
2023-01-03T15:07:03.499Z,6.78
2023-01-03T15:11:59.586Z,6.77
2023-01-03T15:16:49.980Z,6.76
2023-01-03T15:21:47.623Z,6.74
2023-01-03T15:26:56.757Z,6.71
2023-01-03T15:31:54.489Z,6.68
2023-01-03T15:36:49.817Z,6.66
2023-01-03T15:42:19.715Z,6.6
2023-01-03T15:46:50.195Z,6.58
2023-01-03T15:51:47.535Z,6.57
2023-01-03T15:56:58.884Z,6.56
2023-01-03T16:01:47.686Z,6.57
2023-01-03T16:06:52.220Z,6.57
2023-01-03T16:11:48.235Z,6.59
2023-01-03T16:16:49.568Z,6.6
2023-01-03T16:22:09.333Z,6.6
2023-01-03T16:26:55.911Z,6.61
2023-01-03T16:31:48.689Z,6.61
2023-01-03T16:36:47.609Z,6.62
2023-01-03T16:41:57.556Z,6.62
2023-01-03T16:46:48.692Z,6.65
2023-01-03T16:51:57.077Z,6.65
2023-01-03T16:56:56.297Z,6.66
2023-01-03T17:01:55.349Z,6.65
2023-01-03T17:06:48.023Z,6.67
2023-01-03T17:11:47.908Z,6.67
2023-01-03T17:16:47.870Z,6.66
2023-01-03T17:21:51.301Z,6.65
2023-01-03T17:27:01.106Z,6.64
2023-01-03T17:31:47.651Z,6.64
2023-01-03T17:36:47.718Z,6.65
2023-01-03T17:41:59.243Z,6.64
2023-01-03T17:47:01.636Z,6.67
2023-01-03T17:51:48.556Z,6.68
2023-01-03T17:56:59.733Z,6.69
2023-01-03T18:01:48.097Z,6.68
2023-01-03T18:06:47.489Z,6.67
2023-01-03T18:11:47.671Z,6.66
2023-01-03T18:16:53.153Z,6.66
2023-01-03T18:21:47.852Z,6.69
2023-01-03T18:26:58.719Z,6.69
2023-01-03T18:31:48.336Z,6.7
2023-01-03T18:36:49.538Z,6.72
2023-01-03T18:41:47.819Z,6.74
2023-01-03T18:46:48.010Z,6.76
2023-01-03T18:51:47.988Z,6.78
2023-01-03T18:56:56.827Z,6.8
2023-01-03T19:01:47.570Z,6.82
2023-01-03T19:06:49.332Z,6.83
2023-01-03T19:11:47.551Z,6.84
2023-01-03T19:16:47.779Z,6.85
2023-01-03T19:21:49.296Z,6.84
2023-01-03T19:26:52.995Z,6.84
2023-01-03T19:31:49.772Z,6.83
2023-01-03T19:36:48.076Z,6.82
2023-01-03T19:42:01.027Z,6.84
2023-01-03T19:46:48.237Z,6.86
2023-01-03T19:51:47.643Z,6.88
2023-01-03T19:56:48.172Z,6.88
2023-01-03T20:02:22.770Z,6.91
2023-01-03T20:06:47.618Z,6.91
2023-01-03T20:11:48.506Z,6.92
2023-01-03T20:16:47.558Z,6.94
2023-01-03T20:21:50.707Z,6.95
2023-01-03T20:26:47.583Z,6.98
2023-01-03T20:31:47.842Z,6.98
2023-01-03T20:36:49.392Z,6.98
2023-01-03T20:41:47.392Z,7.01
2023-01-03T20:46:47.791Z,7.04
2023-01-03T20:51:47.596Z,7.05
2023-01-03T20:56:48.093Z,7.07
2023-01-03T21:01:48.303Z,7.07
2023-01-03T21:06:48.680Z,7.1
2023-01-03T21:11:48.140Z,7.13
2023-01-03T21:16:48.867Z,7.15
2023-01-03T21:21:48.805Z,7.18
2023-01-03T21:26:47.835Z,7.19
2023-01-03T21:31:50.529Z,7.22
2023-01-03T21:36:49.214Z,7.25
2023-01-03T21:41:59.031Z,7.28
2023-01-03T21:46:47.577Z,7.29
2023-01-03T21:51:47.953Z,7.3
2023-01-03T21:56:50.106Z,7.33
2023-01-03T22:01:59.044Z,7.37
2023-01-03T22:06:49.169Z,7.4
2023-01-03T22:11:47.937Z,7.44
2023-01-03T22:16:47.613Z,7.47
2023-01-03T22:21:47.423Z,7.5
2023-01-03T22:26:47.554Z,7.54
2023-01-03T22:31:48.822Z,7.57
2023-01-03T22:36:47.769Z,7.59
2023-01-03T22:41:47.389Z,7.63
2023-01-03T22:46:47.494Z,7.62
2023-01-03T22:51:47.464Z,7.61
2023-01-03T22:56:47.497Z,7.63
2023-01-03T23:01:47.712Z,7.59
2023-01-03T23:06:47.439Z,7.6
2023-01-03T23:11:58.841Z,7.59
2023-01-03T23:16:47.827Z,7.59
2023-01-03T23:21:48.908Z,7.58
2023-01-03T23:26:47.840Z,7.57
2023-01-03T23:31:47.823Z,7.58
2023-01-03T23:36:47.365Z,7.58
2023-01-03T23:41:50.544Z,7.59
2023-01-03T23:46:47.679Z,7.61
2023-01-03T23:51:47.453Z,7.62
2023-01-03T23:56:47.489Z,7.63
